Time;durP1;ratioP1;P1;durP2;ratioP2;P2;SDS_P1;SDS_P2;PMS_P1;PMS_P2;Temp;Humidity;BMP_temperature;BMP_pressure;BME280_temperature;BME280_humidity;BME280_pressure;Samples;Min_cycle;Max_cycle;Signal;HPM_P1;HPM_P2
2021/11/07 00:04:42;;;;;;;16.35;4.90;;;;;;;;;;5036541;28;20025;-37
2021/11/07 00:12:38;;;;;;;14.77;6.00;;;;;;;;;;5038273;28;20501;-40
2021/11/07 00:15:01;;;;;;;8.52;2.20;;;;;;;;;;5035887;28;20120;-37
2021/11/07 00:17:29;;;;;;;17.10;5.18;;;;;;;;;;5033709;28;20109;-36
2021/11/07 00:22:41;;;;;;;4.72;1.60;;;;;;;;;;5035273;28;20124;-37
2021/11/07 00:25:21;;;;;;;18.35;2.58;;;;;;;;;;5033730;28;20031;-37
2021/11/07 00:27:56;;;;;;;15.70;3.50;;;;;;;;;;5038889;28;20025;-37
2021/11/07 00:37:56;;;;;;;8.68;4.43;;;;;;;;;;5037212;28;20033;-38
2021/11/07 00:40:31;;;;;;;4.47;2.85;;;;;;;;;;5032824;28;20033;-38
2021/11/07 00:43:17;;;;;;;14.80;5.20;;;;;;;;;;5037046;28;20025;-38
2021/11/07 00:50:46;;;;;;;8.20;3.08;;;;;;;;;;5034184;28;20013;-38
2021/11/07 00:56:05;;;;;;;18.67;4.50;;;;;;;;;;5035924;28;20025;-37
2021/11/07 00:58:35;;;;;;;10.55;4.20;;;;;;;;;;5032519;28;20025;-38
2021/11/07 01:01:04;;;;;;;15.43;2.83;;;;;;;;;;5034908;28;20133;-37
2021/11/07 01:03:30;;;;;;;4.63;2.13;;;;;;;;;;5035206;28;20224;-38
2021/11/07 01:05:56;;;;;;;18.48;4.72;;;;;;;;;;5033787;28;20495;-37
2021/11/07 01:08:21;;;;;;;14.30;4.45;;;;;;;;;;5032002;28;20421;-37
2021/11/07 01:10:46;;;;;;;18.67;4.88;;;;;;;;;;5038400;28;20536;-38
2021/11/07 01:13:12;;;;;;;11.25;3.17;;;;;;;;;;5032795;28;20021;-37
2021/11/07 01:15:37;;;;;;;9.68;3.33;;;;;;;;;;5035155;28;20107;-38
2021/11/07 01:18:03;;;;;;;14.82;3.25;;;;;;;;;;5036562;28;20039;-38
2021/11/07 01:20:33;;;;;;;15.90;5.40;;;;;;;;;;5035942;28;20066;-37
2021/11/07 01:25:25;;;;;;;5.13;3.05;;;;;;;;;;5035515;28;20021;-38
2021/11/07 01:27:52;;;;;;;9.73;3.08;;;;;;;;;;5035246;28;20476;-40
2021/11/07 01:30:21;;;;;;;8.20;3.72;;;;;;;;;;5034983;28;20484;-38
2021/11/07 01:32:51;;;;;;;17.17;3.60;;;;;;;;;;5034691;28;20029;-37
2021/11/07 01:35:20;;;;;;;10.73;4.25;;;;;;;;;;5036256;28;20113;-38
2021/11/07 01:40:20;;;;;;;;;;;;;;;;;;5032666;28;20048;-41
2021/11/07 01:42:54;;;;;;;7.00;2.65;;;;;;;;;;5032076;28;20008;-39
2021/11/07 01:45:26;;;;;;;13.98;3.88;;;;;;;;;;5034149;28;20025;-38
2021/11/07 01:47:56;;;;;;;21.90;4.60;;;;;;;;;;5036243;28;20017;-38
2021/11/07 01:50:21;;;;;;;9.35;4.40;;;;;;;;;;5033507;28;20045;-38
2021/11/07 01:52:53;;;;;;;16.23;5.57;;;;;;;;;;5036474;28;20039;-38
2021/11/07 01:55:20;;;;;;;15.60;3.72;;;;;;;;;;5036040;28;20037;-40
2021/11/07 01:57:46;;;;;;;13.80;3.63;;;;;;;;;;5040315;28;20029;-39
2021/11/07 02:00:26;;;;;;;17.00;6.20;;;;;;;;;;5039305;28;20032;-38
2021/11/07 02:02:51;;;;;;;2.17;1.10;;;;;;;;;;5037963;28;20068;-37
2021/11/07 02:05:17;;;;;;;17.10;5.88;;;;;;;;;;5039627;28;20056;-41
2021/11/07 02:07:42;;;;;;;14.75;1.75;;;;;;;;;;5038497;28;20055;-39
2021/11/07 02:10:09;;;;;;;9.35;3.35;;;;;;;;;;5042997;28;20032;-36
2021/11/07 02:12:35;;;;;;;6.38;2.67;;;;;;;;;;5039940;28;20029;-39
2021/11/07 02:15:02;;;;;;;5.88;3.28;;;;;;;;;;5042848;28;20028;-36
2021/11/07 02:17:27;;;;;;;4.50;2.45;;;;;;;;;;5035003;28;20019;-39
2021/11/07 02:19:53;;;;;;;19.42;5.57;;;;;;;;;;5034820;28;20490;-40
2021/11/07 02:22:18;;;;;;;9.05;2.83;;;;;;;;;;5040591;28;20473;-39
2021/11/07 02:24:44;;;;;;;6.20;3.47;;;;;;;;;;5038279;28;20025;-38
2021/11/07 02:27:09;;;;;;;5.03;1.75;;;;;;;;;;5040349;28;20469;-38
2021/11/07 02:29:36;;;;;;;6.95;1.75;;;;;;;;;;5037070;28;20045;-39
2021/11/07 02:32:03;;;;;;;10.07;5.25;;;;;;;;;;5037405;28;20025;-44
2021/11/07 02:34:29;;;;;;;4.53;2.45;;;;;;;;;;5040950;28;20469;-41
2021/11/07 02:36:54;;;;;;;14.80;3.50;;;;;;;;;;5039401;28;20113;-43
2021/11/07 02:39:21;;;;;;;7.32;2.90;;;;;;;;;;5040222;28;20100;-38
2021/11/07 02:41:47;;;;;;;9.15;3.47;;;;;;;;;;5038070;28;20029;-41
2021/11/07 02:44:25;;;;;;;10.60;3.42;;;;;;;;;;5037403;28;20018;-38
2021/11/07 02:46:50;;;;;;;7.47;3.63;;;;;;;;;;5042054;28;20013;-37
2021/11/07 02:49:16;;;;;;;19.42;2.58;;;;;;;;;;5038565;28;20045;-42
2021/11/07 02:51:41;;;;;;;8.05;2.72;;;;;;;;;;5039524;28;20025;-39
2021/11/07 02:54:08;;;;;;;13.52;2.72;;;;;;;;;;5038671;28;20039;-37
2021/11/07 02:56:34;;;;;;;28.05;5.88;;;;;;;;;;5037318;28;20094;-38
2021/11/07 02:58:59;;;;;;;15.93;3.65;;;;;;;;;;5037585;28;20411;-37
2021/11/07 03:01:30;;;;;;;11.20;3.45;;;;;;;;;;5039210;28;20468;-39
2021/11/07 03:04:06;;;;;;;6.32;2.83;;;;;;;;;;5039203;28;20079;-41
2021/11/07 03:06:33;;;;;;;9.38;2.58;;;;;;;;;;5037618;28;20080;-37
2021/11/07 03:09:00;;;;;;;4.90;2.13;;;;;;;;;;5035455;28;20018;-37
2021/11/07 03:11:25;;;;;;;13.40;2.92;;;;;;;;;;5038509;28;20037;-40
2021/11/07 03:13:51;;;;;;;10.00;4.57;;;;;;;;;;5042777;28;20032;-38
2021/11/07 03:16:18;;;;;;;5.85;2.50;;;;;;;;;;5038415;28;20508;-37
2021/11/07 03:18:46;;;;;;;5.07;2.30;;;;;;;;;;5040686;28;20037;-38
2021/11/07 03:21:15;;;;;;;4.97;1.98;;;;;;;;;;5038089;28;20072;-39
2021/11/07 03:23:49;;;;;;;16.98;2.58;;;;;;;;;;5037612;28;20017;-37
2021/11/07 03:26:15;;;;;;;10.18;2.30;;;;;;;;;;5041305;28;20021;-41
2021/11/07 03:28:42;;;;;;;12.77;2.58;;;;;;;;;;5036458;28;20063;-38
2021/11/07 03:33:46;;;;;;;14.30;2.05;;;;;;;;;;5036282;28;20733;-37
2021/11/07 03:36:16;;;;;;;13.95;2.72;;;;;;;;;;5039432;28;20021;-38
2021/11/07 03:38:43;;;;;;;8.88;2.53;;;;;;;;;;5036506;28;20051;-39
2021/11/07 03:41:09;;;;;;;4.00;1.83;;;;;;;;;;5039215;28;20104;-37
2021/11/07 03:43:34;;;;;;;20.58;3.25;;;;;;;;;;5037497;28;20025;-37
2021/11/07 03:46:00;;;;;;;21.05;3.70;;;;;;;;;;5039566;28;20425;-38
2021/11/07 03:48:25;;;;;;;11.98;2.95;;;;;;;;;;5034696;28;20526;-40
2021/11/07 03:50:51;;;;;;;7.93;1.80;;;;;;;;;;5036320;28;20429;-39
2021/11/07 03:53:16;;;;;;;8.55;3.67;;;;;;;;;;5036828;28;20029;-37
2021/11/07 03:55:42;;;;;;;19.88;4.07;;;;;;;;;;5036431;28;20311;-38
2021/11/07 03:58:09;;;;;;;3.10;1.77;;;;;;;;;;5034724;28;20040;-38
2021/11/07 04:00:34;;;;;;;3.25;2.13;;;;;;;;;;5035441;28;20021;-40
2021/11/07 04:03:00;;;;;;;4.85;2.13;;;;;;;;;;5035786;28;20025;-37
2021/11/07 04:05:25;;;;;;;7.32;1.98;;;;;;;;;;5033222;28;20112;-38
2021/11/07 04:07:51;;;;;;;3.22;1.50;;;;;;;;;;5034787;28;20103;-39
2021/11/07 04:10:16;;;;;;;6.03;1.75;;;;;;;;;;5040296;28;20866;-36
2021/11/07 04:12:42;;;;;;;7.70;3.58;;;;;;;;;;5035438;28;20449;-37
2021/11/07 04:15:08;;;;;;;10.27;2.72;;;;;;;;;;5034239;28;20040;-37
2021/11/07 04:17:34;;;;;;;10.10;3.10;;;;;;;;;;5033646;28;20497;-37
2021/11/07 04:19:59;;;;;;;9.02;4.38;;;;;;;;;;5037322;28;20052;-39
2021/11/07 04:22:24;;;;;;;8.25;3.03;;;;;;;;;;5037908;28;20060;-38
2021/11/07 04:24:50;;;;;;;10.50;3.78;;;;;;;;;;5034306;28;20428;-37
2021/11/07 04:27:15;;;;;;;17.35;4.63;;;;;;;;;;5037366;28;20041;-38
2021/11/07 04:29:41;;;;;;;7.22;3.28;;;;;;;;;;5033480;28;20342;-36
2021/11/07 04:32:06;;;;;;;6.75;2.13;;;;;;;;;;5039672;28;20075;-37
2021/11/07 04:34:32;;;;;;;8.63;1.95;;;;;;;;;;5034034;28;20449;-38
2021/11/07 04:36:57;;;;;;;10.95;3.53;;;;;;;;;;5036761;28;20029;-40
2021/11/07 04:39:24;;;;;;;18.70;2.88;;;;;;;;;;5038873;28;20492;-38
2021/11/07 04:41:50;;;;;;;9.15;1.50;;;;;;;;;;5030626;28;20029;-36
2021/11/07 04:44:15;;;;;;;13.52;3.50;;;;;;;;;;5040329;28;20032;-38
2021/11/07 04:46:40;;;;;;;5.72;2.85;;;;;;;;;;5033894;28;20420;-41
2021/11/07 04:49:06;;;;;;;10.82;1.63;;;;;;;;;;5032935;28;20072;-41
2021/11/07 04:51:31;;;;;;;8.27;1.63;;;;;;;;;;5037163;28;20029;-36
2021/11/07 04:53:56;;;;;;;13.93;3.08;;;;;;;;;;5034987;28;20029;-39
2021/11/07 04:56:22;;;;;;;4.60;1.98;;;;;;;;;;5032521;28;20048;-36
2021/11/07 04:58:47;;;;;;;5.03;2.47;;;;;;;;;;5032334;28;20425;-36
2021/11/07 05:01:12;;;;;;;6.03;2.40;;;;;;;;;;5034089;28;20032;-37
2021/11/07 05:03:38;;;;;;;10.30;3.80;;;;;;;;;;5039964;28;20863;-36
2021/11/07 05:06:03;;;;;;;12.57;3.08;;;;;;;;;;5029209;28;20029;-36
2021/11/07 05:08:29;;;;;;;3.58;1.80;;;;;;;;;;5034873;28;20071;-36
2021/11/07 05:10:54;;;;;;;9.80;3.10;;;;;;;;;;5036514;28;20013;-37
2021/11/07 05:13:20;;;;;;;12.15;1.45;;;;;;;;;;5034598;28;20421;-38
2021/11/07 05:15:45;;;;;;;3.92;2.38;;;;;;;;;;5034384;28;20026;-42
2021/11/07 05:18:11;;;;;;;3.22;1.20;;;;;;;;;;5034735;28;20031;-40
2021/11/07 05:20:36;;;;;;;5.60;1.52;;;;;;;;;;5035433;28;20029;-38
2021/11/07 05:23:02;;;;;;;7.07;1.98;;;;;;;;;;5035080;28;20044;-36
2021/11/07 05:25:29;;;;;;;15.68;2.88;;;;;;;;;;5034413;28;20121;-36
2021/11/07 05:27:54;;;;;;;13.57;3.17;;;;;;;;;;5032406;28;20021;-36
2021/11/07 05:30:20;;;;;;;8.25;1.92;;;;;;;;;;5032126;28;20134;-35
2021/11/07 05:32:45;;;;;;;4.55;1.42;;;;;;;;;;5039081;28;20079;-36
2021/11/07 05:35:12;;;;;;;8.05;2.38;;;;;;;;;;5033508;28;20773;-36
2021/11/07 05:37:38;;;;;;;2.30;1.73;;;;;;;;;;5036639;28;20041;-35
2021/11/07 05:40:06;;;;;;;11.13;2.40;;;;;;;;;;5036572;28;20068;-35
2021/11/07 05:42:32;;;;;;;5.70;2.20;;;;;;;;;;5033254;28;20532;-36
2021/11/07 05:44:57;;;;;;;6.18;2.20;;;;;;;;;;5036128;28;20115;-35
2021/11/07 05:47:23;;;;;;;8.40;2.45;;;;;;;;;;5034541;28;20315;-36
2021/11/07 05:49:48;;;;;;;5.97;1.77;;;;;;;;;;5035462;28;20049;-36
2021/11/07 05:52:13;;;;;;;3.88;0.82;;;;;;;;;;5034447;28;20025;-35
2021/11/07 05:54:39;;;;;;;9.20;1.58;;;;;;;;;;5035016;28;20029;-36
2021/11/07 05:57:04;;;;;;;20.23;2.70;;;;;;;;;;5036299;28;20035;-40
2021/11/07 05:59:29;;;;;;;2.22;0.50;;;;;;;;;;5034094;28;20489;-38
2021/11/07 06:01:56;;;;;;;5.55;1.85;;;;;;;;;;5036498;28;20036;-37
2021/11/07 06:04:21;;;;;;;4.40;1.05;;;;;;;;;;5034217;28;20498;-36
2021/11/07 06:06:47;;;;;;;7.60;2.65;;;;;;;;;;5033861;28;20025;-36
2021/11/07 06:09:12;;;;;;;3.00;0.63;;;;;;;;;;5035446;28;20078;-36
2021/11/07 06:11:37;;;;;;;5.30;1.48;;;;;;;;;;5034556;28;20021;-36
2021/11/07 06:14:03;;;;;;;8.85;3.03;;;;;;;;;;5036219;28;20021;-35
2021/11/07 06:16:28;;;;;;;9.85;1.10;;;;;;;;;;5033573;28;20029;-36
2021/11/07 06:18:54;;;;;;;3.45;1.35;;;;;;;;;;5035728;28;20076;-40
2021/11/07 06:21:21;;;;;;;10.95;0.82;;;;;;;;;;5033585;28;20370;-36
2021/11/07 06:23:47;;;;;;;2.47;1.17;;;;;;;;;;5035074;28;20059;-36
2021/11/07 06:26:13;;;;;;;2.22;1.48;;;;;;;;;;5027509;28;20036;-37
2021/11/07 06:28:39;;;;;;;7.60;1.02;;;;;;;;;;5032247;28;20017;-36
2021/11/07 06:31:06;;;;;;;3.72;1.50;;;;;;;;;;5034301;28;20079;-38
2021/11/07 06:33:32;;;;;;;4.45;1.65;;;;;;;;;;5033226;28;20045;-36
2021/11/07 06:35:57;;;;;;;10.25;3.00;;;;;;;;;;5033290;28;20025;-38
2021/11/07 06:38:23;;;;;;;5.60;2.28;;;;;;;;;;5031652;28;20056;-36
2021/11/07 06:40:48;;;;;;;8.80;1.88;;;;;;;;;;5032703;28;20029;-36
2021/11/07 06:43:14;;;;;;;5.95;1.63;;;;;;;;;;5032629;28;20029;-37
2021/11/07 06:45:39;;;;;;;12.32;3.63;;;;;;;;;;5033212;28;20030;-37
2021/11/07 06:48:05;;;;;;;8.43;2.60;;;;;;;;;;5035901;28;20056;-38
2021/11/07 06:50:31;;;;;;;8.38;2.67;;;;;;;;;;5034998;28;20041;-37
2021/11/07 06:52:56;;;;;;;16.85;6.00;;;;;;;;;;5035219;28;20128;-38
2021/11/07 06:55:22;;;;;;;2.42;0.95;;;;;;;;;;5034574;28;20029;-37
2021/11/07 06:57:47;;;;;;;13.10;3.50;;;;;;;;;;5034257;28;20369;-37
2021/11/07 07:00:15;;;;;;;4.78;3.10;;;;;;;;;;5033015;28;20024;-36
2021/11/07 07:02:40;;;;;;;11.25;2.38;;;;;;;;;;5034368;28;20129;-36
2021/11/07 07:05:09;;;;;;;6.70;1.95;;;;;;;;;;5037011;28;20120;-37
2021/11/07 07:07:37;;;;;;;9.57;2.30;;;;;;;;;;5032253;28;20111;-37
2021/11/07 07:10:05;;;;;;;2.85;0.95;;;;;;;;;;5031887;28;20110;-36
2021/11/07 07:12:37;;;;;;;6.28;1.35;;;;;;;;;;5036582;28;20056;-36
2021/11/07 07:15:22;;;;;;;4.53;2.00;;;;;;;;;;5036805;28;20032;-35
2021/11/07 07:30:51;;;;;;;1.40;1.00;;;;;;;;;;5037610;28;20044;-37
2021/11/07 07:33:25;;;;;;;2.15;1.73;;;;;;;;;;5031549;28;20527;-36
2021/11/07 07:35:56;;;;;;;4.23;1.13;;;;;;;;;;5034817;28;20462;-37
2021/11/07 07:38:21;;;;;;;6.80;1.43;;;;;;;;;;5031918;28;20265;-39
2021/11/07 07:40:47;;;;;;;4.40;1.73;;;;;;;;;;5031015;28;20649;-39
2021/11/07 07:43:13;;;;;;;2.33;1.35;;;;;;;;;;5031049;28;20033;-37
2021/11/07 07:45:38;;;;;;;5.20;1.95;;;;;;;;;;5034401;28;20483;-37
2021/11/07 07:48:04;;;;;;;5.55;2.05;;;;;;;;;;5033124;28;20498;-37
2021/11/07 07:50:32;;;;;;;1.35;0.93;;;;;;;;;;5036244;28;20060;-36
2021/11/07 07:52:57;;;;;;;11.68;1.55;;;;;;;;;;5033183;28;20033;-37
2021/11/07 07:55:24;;;;;;;2.85;0.98;;;;;;;;;;5034169;28;20459;-36
2021/11/07 07:57:50;;;;;;;2.75;1.48;;;;;;;;;;5034077;28;20105;-39
2021/11/07 08:00:17;;;;;;;5.97;2.00;;;;;;;;;;5031025;28;20112;-37
2021/11/07 08:02:42;;;;;;;2.50;1.00;;;;;;;;;;5033722;28;20026;-38
2021/11/07 08:05:08;;;;;;;7.82;1.88;;;;;;;;;;5031991;28;20021;-37
2021/11/07 08:07:34;;;;;;;4.78;1.35;;;;;;;;;;5033587;28;20308;-36
2021/11/07 08:09:59;;;;;;;8.25;1.63;;;;;;;;;;5034189;28;20057;-36
2021/11/07 08:12:24;;;;;;;3.97;1.02;;;;;;;;;;5034142;28;20026;-36
2021/11/07 08:14:51;;;;;;;15.70;2.05;;;;;;;;;;5029495;28;20056;-36
2021/11/07 08:17:16;;;;;;;6.32;0.65;;;;;;;;;;5033669;28;20021;-37
2021/11/07 08:19:42;;;;;;;4.47;1.75;;;;;;;;;;5033654;28;20013;-36
2021/11/07 08:22:08;;;;;;;2.40;0.85;;;;;;;;;;5031572;28;20082;-36
2021/11/07 08:24:36;;;;;;;2.72;1.20;;;;;;;;;;5031426;28;20033;-37
2021/11/07 08:27:02;;;;;;;1.52;1.02;;;;;;;;;;5032084;28;20548;-36
2021/11/07 08:29:28;;;;;;;7.10;0.80;;;;;;;;;;5030018;28;20078;-37
2021/11/07 08:31:53;;;;;;;5.63;1.88;;;;;;;;;;5029833;28;20497;-37
2021/11/07 08:34:23;;;;;;;3.53;0.70;;;;;;;;;;5034640;28;20021;-36
2021/11/07 08:37:06;;;;;;;11.20;3.28;;;;;;;;;;5034418;28;20518;-38
2021/11/07 08:39:37;;;;;;;6.53;1.55;;;;;;;;;;5034415;28;20025;-37
2021/11/07 08:42:10;;;;;;;2.75;0.50;;;;;;;;;;5031124;28;20025;-36
2021/11/07 09:07:20;;;;;;;5.40;1.65;;;;;;;;;;5035166;28;20377;-37
2021/11/07 09:09:12;;;;;;;4.50;2.17;;;;;;;;;;5029852;28;20067;-38
2021/11/07 09:11:39;;;;;;;2.13;0.60;;;;;;;;;;5038118;28;20108;-37
2021/11/07 09:14:04;;;;;;;5.75;1.58;;;;;;;;;;5034405;28;20037;-37
2021/11/07 09:16:29;;;;;;;5.70;0.65;;;;;;;;;;5032428;28;20378;-37
2021/11/07 09:18:58;;;;;;;11.80;1.88;;;;;;;;;;5034515;28;20139;-36
2021/11/07 09:21:27;;;;;;;6.32;2.33;;;;;;;;;;5036368;28;20032;-37
2021/11/07 09:23:56;;;;;;;2.10;1.40;;;;;;;;;;5029808;28;20025;-40
2021/11/07 09:29:03;;;;;;;5.20;1.33;;;;;;;;;;5035277;28;20555;-37
2021/11/07 09:34:45;;;;;;;8.48;1.90;;;;;;;;;;5014643;28;20688;-40
2021/11/07 09:37:27;;;;;;;2.20;0.63;;;;;;;;;;5033999;28;20032;-38
2021/11/07 09:39:59;;;;;;;4.90;1.17;;;;;;;;;;5033270;28;20022;-37
2021/11/07 09:42:32;;;;;;;3.58;1.33;;;;;;;;;;5032428;28;20130;-38
2021/11/07 09:45:08;;;;;;;6.35;1.30;;;;;;;;;;5035249;28;20013;-37
2021/11/07 09:47:35;;;;;;;2.13;1.00;;;;;;;;;;5032874;28;20088;-37
2021/11/07 09:50:01;;;;;;;1.58;0.70;;;;;;;;;;5036286;28;20057;-39
2021/11/07 09:52:33;;;;;;;6.15;1.83;;;;;;;;;;5037197;28;20026;-40
2021/11/07 09:55:01;;;;;;;2.28;0.70;;;;;;;;;;5032837;28;20025;-37
2021/11/07 09:57:28;;;;;;;0.80;0.57;;;;;;;;;;5033269;28;20021;-37
2021/11/07 09:59:56;;;;;;;2.78;1.13;;;;;;;;;;5033298;28;20021;-37
2021/11/07 10:02:23;;;;;;;5.75;1.23;;;;;;;;;;5034141;28;20021;-37
2021/11/07 10:04:49;;;;;;;8.48;1.35;;;;;;;;;;5033546;28;20037;-38
2021/11/07 10:07:21;;;;;;;3.28;1.02;;;;;;;;;;5037347;28;20033;-38
2021/11/07 10:09:52;;;;;;;5.88;0.93;;;;;;;;;;5032071;28;20060;-38
2021/11/07 10:12:29;;;;;;;2.72;1.38;;;;;;;;;;5032708;28;20025;-40
2021/11/07 10:14:58;;;;;;;15.57;1.92;;;;;;;;;;5035189;28;20025;-37
2021/11/07 10:17:24;;;;;;;2.05;0.82;;;;;;;;;;5035698;28;20021;-36
2021/11/07 10:20:11;;;;;;;1.42;0.43;;;;;;;;;;5037062;28;20029;-40
2021/11/07 10:22:38;;;;;;;1.67;1.25;;;;;;;;;;5039221;28;20087;-37
2021/11/07 10:25:14;;;;;;;2.15;0.82;;;;;;;;;;5040562;28;20067;-38
2021/11/07 10:27:40;;;;;;;5.13;1.75;;;;;;;;;;5038897;28;20108;-40
2021/11/07 10:30:09;;;;;;;12.20;2.15;;;;;;;;;;5034222;28;20032;-38
2021/11/07 10:32:41;;;;;;;6.82;2.05;;;;;;;;;;5034721;28;20032;-41
2021/11/07 10:38:26;;;;;;;1.63;0.50;;;;;;;;;;5038768;28;20105;-39
2021/11/07 10:41:11;;;;;;;7.25;0.98;;;;;;;;;;5037041;28;20512;-37
2021/11/07 10:46:37;;;;;;;7.13;1.05;;;;;;;;;;5032819;28;20032;-40
2021/11/07 10:52:07;;;;;;;12.18;2.22;;;;;;;;;;5038604;28;20036;-42
2021/11/07 10:54:39;;;;;;;7.93;1.60;;;;;;;;;;5037826;28;20047;-38
2021/11/07 10:57:20;;;;;;;5.50;1.60;;;;;;;;;;5041998;28;20057;-39
2021/11/07 11:00:24;;;;;;;1.02;0.52;;;;;;;;;;5038702;28;20052;-37
2021/11/07 11:03:09;;;;;;;4.72;1.08;;;;;;;;;;5000823;28;20090;-37
2021/11/07 11:05:40;;;;;;;3.28;1.63;;;;;;;;;;5000822;28;20033;-37
2021/11/07 11:08:11;;;;;;;7.22;2.30;;;;;;;;;;5022853;28;20512;-37
2021/11/07 11:13:27;;;;;;;13.98;1.50;;;;;;;;;;5039060;28;20123;-38
2021/11/07 11:16:04;;;;;;;3.20;0.98;;;;;;;;;;5035296;28;20040;-37
2021/11/07 11:18:54;;;;;;;0.60;0.30;;;;;;;;;;5036069;28;20025;-38
2021/11/07 11:34:59;;;;;;;9.10;1.63;;;;;;;;;;5038600;28;20787;-37
2021/11/07 11:40:21;;;;;;;;;;;;;;;;;;5036929;28;20525;-38
2021/11/07 11:43:02;;;;;;;10.02;2.55;;;;;;;;;;5036117;28;19970;-38
2021/11/07 11:45:32;;;;;;;1.70;1.38;;;;;;;;;;5040151;28;20044;-38
2021/11/07 11:48:03;;;;;;;6.85;1.60;;;;;;;;;;5036313;28;20026;-38
2021/11/07 11:58:33;;;;;;;2.90;1.55;;;;;;;;;;5034295;28;20040;-37
2021/11/07 12:01:12;;;;;;;3.63;1.20;;;;;;;;;;5035456;28;20032;-37
2021/11/07 12:06:24;;;;;;;3.05;0.90;;;;;;;;;;5035995;28;20124;-39
2021/11/07 12:09:11;;;;;;;2.78;1.35;;;;;;;;;;5035780;28;20046;-37
2021/11/07 12:11:46;;;;;;;9.00;1.85;;;;;;;;;;5034033;28;20376;-37
2021/11/07 12:14:15;;;;;;;0.70;0.35;;;;;;;;;;5037023;28;20095;-38
2021/11/07 12:17:02;;;;;;;1.75;0.35;;;;;;;;;;5036031;28;20013;-38
2021/11/07 12:19:45;;;;;;;2.55;0.70;;;;;;;;;;5035817;28;20021;-38
2021/11/07 12:22:14;;;;;;;6.03;1.38;;;;;;;;;;5031717;28;20640;-40
2021/11/07 12:24:46;;;;;;;3.63;0.55;;;;;;;;;;5033697;28;20388;-38
2021/11/07 12:27:28;;;;;;;1.30;0.73;;;;;;;;;;5037268;28;20033;-35
2021/11/07 12:29:56;;;;;;;2.75;0.70;;;;;;;;;;5036929;28;20021;-39
2021/11/07 12:32:35;;;;;;;11.60;2.65;;;;;;;;;;5038622;28;20032;-40
2021/11/07 12:40:34;;;;;;;2.55;1.20;;;;;;;;;;5036520;28;20440;-38
2021/11/07 12:43:01;;;;;;;0.70;0.40;;;;;;;;;;5033907;28;20029;-39
2021/11/07 12:45:27;;;;;;;2.42;1.00;;;;;;;;;;5034034;28;20076;-38
2021/11/07 12:47:59;;;;;;;2.88;1.38;;;;;;;;;;5034732;28;20021;-38
2021/11/07 12:50:24;;;;;;;1.73;0.93;;;;;;;;;;5037996;28;20046;-39
2021/11/07 12:52:54;;;;;;;2.13;0.95;;;;;;;;;;5039479;28;20476;-42
2021/11/07 12:55:26;;;;;;;1.75;0.60;;;;;;;;;;5034541;28;20025;-38
2021/11/07 12:57:52;;;;;;;0.63;0.45;;;;;;;;;;5037413;28;20497;-38
2021/11/07 13:00:17;;;;;;;0.45;0.40;;;;;;;;;;5036398;28;20039;-37
2021/11/07 13:02:43;;;;;;;1.65;1.10;;;;;;;;;;5035577;28;20021;-38
2021/11/07 13:05:21;;;;;;;1.67;0.63;;;;;;;;;;5034081;28;20100;-40
2021/11/07 13:07:55;;;;;;;10.05;1.95;;;;;;;;;;5038278;28;20072;-38
2021/11/07 13:10:39;;;;;;;8.23;1.92;;;;;;;;;;5036561;28;20103;-38
2021/11/07 13:13:32;;;;;;;0.82;0.40;;;;;;;;;;5036280;28;20032;-39
2021/11/07 13:18:46;;;;;;;0.52;0.38;;;;;;;;;;5036885;28;20025;-41
2021/11/07 13:29:20;;;;;;;6.72;0.43;;;;;;;;;;5037306;28;20591;-37
2021/11/07 13:34:28;;;;;;;1.48;0.40;;;;;;;;;;5035784;28;20028;-40
2021/11/07 13:36:55;;;;;;;2.15;1.10;;;;;;;;;;5034380;28;20056;-38
2021/11/07 13:39:25;;;;;;;5.35;1.60;;;;;;;;;;5033703;28;20649;-37
2021/11/07 13:41:56;;;;;;;4.18;1.58;;;;;;;;;;5032626;28;20107;-39
2021/11/07 13:44:25;;;;;;;2.22;1.10;;;;;;;;;;5033731;28;20038;-38
2021/11/07 13:46:55;;;;;;;0.88;0.30;;;;;;;;;;5034447;28;20051;-41
2021/11/07 13:49:21;;;;;;;2.28;0.68;;;;;;;;;;5034526;28;20107;-37
2021/11/07 13:52:04;;;;;;;2.88;1.60;;;;;;;;;;5030595;28;20313;-39
2021/11/07 13:54:36;;;;;;;4.05;1.25;;;;;;;;;;5031454;28;20028;-39
2021/11/07 13:57:01;;;;;;;1.38;0.63;;;;;;;;;;5034975;28;20029;-38
2021/11/07 13:59:28;;;;;;;2.85;1.25;;;;;;;;;;5035469;28;20380;-38
2021/11/07 14:01:53;;;;;;;3.15;1.38;;;;;;;;;;5032239;28;20018;-39
2021/11/07 14:04:19;;;;;;;2.67;0.63;;;;;;;;;;5033236;28;20103;-39
2021/11/07 14:06:44;;;;;;;8.15;1.25;;;;;;;;;;5035423;28;20018;-37
2021/11/07 14:09:10;;;;;;;8.65;0.68;;;;;;;;;;5031007;28;20092;-39
2021/11/07 14:11:38;;;;;;;3.67;1.23;;;;;;;;;;5035482;28;20017;-37
2021/11/07 14:14:06;;;;;;;3.22;0.85;;;;;;;;;;5032493;28;20140;-38
2021/11/07 14:16:32;;;;;;;1.50;0.75;;;;;;;;;;5032743;28;20021;-38
2021/11/07 14:18:58;;;;;;;4.72;1.65;;;;;;;;;;5031481;28;20014;-39
2021/11/07 14:21:26;;;;;;;3.20;1.02;;;;;;;;;;5034436;28;20013;-38
2021/11/07 14:23:59;;;;;;;4.30;1.27;;;;;;;;;;5035696;28;20500;-38
2021/11/07 14:26:30;;;;;;;2.80;1.45;;;;;;;;;;5035053;28;20028;-39
2021/11/07 14:32:14;;;;;;;2.65;1.48;;;;;;;;;;5029932;28;20036;-39
2021/11/07 14:39:41;;;;;;;10.18;1.88;;;;;;;;;;5037488;28;20080;-38
2021/11/07 14:42:37;;;;;;;3.03;0.80;;;;;;;;;;5033241;28;20493;-39
2021/11/07 14:48:02;;;;;;;4.10;1.73;;;;;;;;;;5035210;28;20082;-38
2021/11/07 14:53:11;;;;;;;3.47;0.60;;;;;;;;;;5034191;28;20484;-40
2021/11/07 14:55:47;;;;;;;2.03;0.88;;;;;;;;;;5034765;28;20021;-38
2021/11/07 14:58:51;;;;;;;5.55;2.03;;;;;;;;;;5035078;28;20036;-37
2021/11/07 15:01:15;;;;;;;1.60;0.50;;;;;;;;;;5035320;28;20519;-38
2021/11/07 15:03:54;;;;;;;6.95;1.95;;;;;;;;;;5033907;28;20025;-41
2021/11/07 15:06:33;;;;;;;1.10;0.60;;;;;;;;;;5036102;28;20025;-38
2021/11/07 15:09:03;;;;;;;10.68;0.98;;;;;;;;;;5032347;28;20017;-37
2021/11/07 15:11:52;;;;;;;7.25;2.15;;;;;;;;;;5030673;28;20024;-38
2021/11/07 15:14:45;;;;;;;3.35;1.30;;;;;;;;;;5036185;28;20711;-43
2021/11/07 15:17:15;;;;;;;10.43;1.50;;;;;;;;;;5034207;28;20025;-39
2021/11/07 15:19:52;;;;;;;6.93;1.98;;;;;;;;;;5037526;28;20110;-38
2021/11/07 15:22:23;;;;;;;3.35;1.50;;;;;;;;;;5036070;28;20135;-37
2021/11/07 15:24:53;;;;;;;8.37;2.07;;;;;;;;;;5037483;28;20021;-39
2021/11/07 15:27:23;;;;;;;5.72;3.40;;;;;;;;;;5037091;28;20021;-37
2021/11/07 15:29:58;;;;;;;4.82;3.10;;;;;;;;;;5036757;28;20023;-40
2021/11/07 15:32:29;;;;;;;4.43;1.92;;;;;;;;;;5039003;28;20028;-38
2021/11/07 15:34:54;;;;;;;;;;;;;;;;;;5034767;28;20033;-38
2021/11/07 15:37:28;;;;;;;5.83;3.23;;;;;;;;;;5036508;28;20415;-37
2021/11/07 15:39:56;;;;;;;6.70;3.53;;;;;;;;;;5037816;28;20262;-38
2021/11/07 15:42:28;;;;;;;3.80;2.33;;;;;;;;;;5035998;28;20123;-38
2021/11/07 15:44:57;;;;;;;5.28;3.17;;;;;;;;;;5036338;28;20030;-37
2021/11/07 15:47:32;;;;;;;6.22;2.67;;;;;;;;;;5034375;28;20021;-37
2021/11/07 15:50:48;;;;;;;9.82;6.72;;;;;;;;;;5040886;28;20045;-41
2021/11/07 16:11:23;;;;;;;4.68;2.85;;;;;;;;;;5037168;28;20048;-38
2021/11/07 16:19:00;;;;;;;3.60;1.80;;;;;;;;;;5038859;28;20269;-37
2021/11/07 16:21:27;;;;;;;8.07;2.05;;;;;;;;;;5035687;28;20103;-36
2021/11/07 16:23:53;;;;;;;12.40;3.05;;;;;;;;;;5035569;28;20031;-37
2021/11/07 16:26:18;;;;;;;6.65;1.55;;;;;;;;;;5032775;28;20396;-40
2021/11/07 16:28:44;;;;;;;5.60;3.38;;;;;;;;;;5033457;28;20067;-37
2021/11/07 16:31:13;;;;;;;17.20;11.13;;;;;;;;;;5037294;28;20025;-38
2021/11/07 16:33:46;;;;;;;9.65;5.28;;;;;;;;;;5036061;28;20120;-37
2021/11/07 16:36:14;;;;;;;17.02;4.43;;;;;;;;;;5032879;28;20032;-49
2021/11/07 16:38:58;;;;;;;17.20;8.30;;;;;;;;;;5035016;28;20430;-38
2021/11/07 16:41:31;;;;;;;11.63;8.55;;;;;;;;;;5038638;28;20499;-41
2021/11/07 16:43:58;;;;;;;29.92;13.07;;;;;;;;;;5036990;28;20025;-39
2021/11/07 16:46:27;;;;;;;14.13;8.55;;;;;;;;;;5036586;28;20917;-40
2021/11/07 16:48:54;;;;;;;10.23;4.80;;;;;;;;;;5039499;28;20107;-40
2021/11/07 16:53:50;;;;;;;9.77;5.50;;;;;;;;;;5035392;28;20052;-38
2021/11/07 16:56:15;;;;;;;6.45;3.72;;;;;;;;;;5041565;28;20480;-40
2021/11/07 16:59:05;;;;;;;14.15;4.78;;;;;;;;;;5038514;28;20037;-40
2021/11/07 17:04:10;;;;;;;6.78;3.10;;;;;;;;;;5037154;28;20868;-42
2021/11/07 17:06:41;;;;;;;12.63;11.13;;;;;;;;;;5036665;28;20017;-41
2021/11/07 17:11:55;;;;;;;10.85;9.45;;;;;;;;;;5034361;28;20033;-41
2021/11/07 17:14:21;;;;;;;21.37;8.20;;;;;;;;;;5038198;28;20107;-41
2021/11/07 17:19:17;;;;;;;8.45;5.60;;;;;;;;;;5032881;28;20036;-38
2021/11/07 17:27:01;;;;;;;25.17;20.75;;;;;;;;;;5033902;28;20481;-39
2021/11/07 17:29:30;;;;;;;19.33;14.57;;;;;;;;;;5035431;28;20028;-41
2021/11/07 17:32:00;;;;;;;25.38;19.50;;;;;;;;;;5035772;28;20024;-41
2021/11/07 17:36:58;;;;;;;21.63;14.88;;;;;;;;;;5034302;28;20021;-39
2021/11/07 17:55:21;;;;;;;24.80;19.80;;;;;;;;;;5039220;28;20031;-40
2021/11/07 17:57:47;;;;;;;31.35;24.88;;;;;;;;;;5039088;28;20108;-38
2021/11/07 18:00:19;;;;;;;21.92;16.27;;;;;;;;;;5040536;28;20040;-39
2021/11/07 18:02:47;;;;;;;16.63;13.73;;;;;;;;;;5033756;28;20362;-41
2021/11/07 18:05:17;;;;;;;18.23;15.10;;;;;;;;;;5038156;28;20483;-41
2021/11/07 18:07:57;;;;;;;34.28;25.90;;;;;;;;;;5037917;28;20028;-43
2021/11/07 18:10:23;;;;;;;51.88;29.63;;;;;;;;;;5035402;28;20444;-37
2021/11/07 18:12:53;;;;;;;20.13;15.75;;;;;;;;;;5036162;28;20071;-37
2021/11/07 18:15:19;;;;;;;24.63;22.13;;;;;;;;;;5035203;28;20057;-44